Time;durP1;ratioP1;P1;durP2;ratioP2;P2;SDS_P1;SDS_P2;PMS_P1;PMS_P2;Temp;Humidity;BMP_temperature;BMP_pressure;BME280_temperature;BME280_humidity;BME280_pressure;Samples;Min_cycle;Max_cycle;Signal;HPM_P1;HPM_P2
2024/01/13 00:01:06;;;;;;;113.22;106.88;;;;;;;;;;5082916;28;21062;-62
2024/01/13 00:03:33;;;;;;;128.70;122.10;;;;;;;;;;5077879;28;20422;-62
2024/01/13 00:06:06;;;;;;;156.75;148.73;;;;;;;;;;5084901;28;20535;-62
2024/01/13 00:08:33;;;;;;;163.90;155.15;;;;;;;;;;5081079;28;20919;-62
2024/01/13 00:11:04;;;;;;;166.07;156.88;;;;;;;;;;5106684;28;20471;-61
2024/01/13 00:13:32;;;;;;;166.93;158.52;;;;;;;;;;5092037;28;20428;-62
2024/01/13 00:15:59;;;;;;;117.20;111.20;;;;;;;;;;5073130;28;20427;-62
2024/01/13 00:18:27;;;;;;;111.53;105.68;;;;;;;;;;5091228;28;20463;-62
2024/01/13 00:21:09;;;;;;;127.70;120.83;;;;;;;;;;5091660;28;20428;-62
2024/01/13 00:23:36;;;;;;;131.48;124.43;;;;;;;;;;5068191;28;20507;-62
2024/01/13 00:26:04;;;;;;;137.80;130.65;;;;;;;;;;5072308;28;20479;-62
2024/01/13 00:28:31;;;;;;;154.55;145.85;;;;;;;;;;5086474;28;20523;-62
2024/01/13 00:31:06;;;;;;;157.65;149.25;;;;;;;;;;5083056;28;20585;-61
2024/01/13 00:33:43;;;;;;;164.97;156.50;;;;;;;;;;5094135;28;20464;-61
2024/01/13 00:36:10;;;;;;;149.48;141.65;;;;;;;;;;5084225;28;20495;-62
2024/01/13 00:38:38;;;;;;;146.50;138.80;;;;;;;;;;5095356;28;20425;-62
2024/01/13 00:41:06;;;;;;;81.93;77.13;;;;;;;;;;5080314;28;20516;-62
2024/01/13 00:43:38;;;;;;;70.88;66.80;;;;;;;;;;5078768;28;20425;-61
2024/01/13 00:46:05;;;;;;;91.57;86.22;;;;;;;;;;5089398;28;20488;-62
2024/01/13 00:48:35;;;;;;;90.57;85.40;;;;;;;;;;5089118;28;20425;-61
2024/01/13 00:51:09;;;;;;;96.13;90.60;;;;;;;;;;5090251;28;20426;-62
2024/01/13 00:53:41;;;;;;;78.57;74.03;;;;;;;;;;5085862;28;20426;-62
2024/01/13 00:56:08;;;;;;;99.25;93.55;;;;;;;;;;5084708;28;20437;-61
2024/01/13 00:58:37;;;;;;;105.75;99.97;;;;;;;;;;5094156;28;20448;-61
2024/01/13 01:01:17;;;;;;;121.43;114.75;;;;;;;;;;5087795;28;20422;-61
2024/01/13 01:03:45;;;;;;;103.00;97.20;;;;;;;;;;5095568;28;20421;-61
2024/01/13 01:06:14;;;;;;;85.53;80.70;;;;;;;;;;5077817;28;20459;-61
2024/01/13 01:08:48;;;;;;;101.77;95.77;;;;;;;;;;5087896;28;20514;-61
2024/01/13 01:11:15;;;;;;;101.35;95.53;;;;;;;;;;5082993;28;20970;-61
2024/01/13 01:13:42;;;;;;;100.90;95.00;;;;;;;;;;5078337;28;20565;-61
2024/01/13 01:16:10;;;;;;;114.38;108.07;;;;;;;;;;5075716;28;20800;-61
2024/01/13 01:18:37;;;;;;;127.15;119.80;;;;;;;;;;5083881;28;20426;-62
2024/01/13 01:21:13;;;;;;;118.95;112.30;;;;;;;;;;5089692;28;20455;-61
2024/01/13 01:23:43;;;;;;;133.23;125.38;;;;;;;;;;5088955;28;20425;-61
2024/01/13 01:26:12;;;;;;;119.90;113.40;;;;;;;;;;5083284;28;20507;-61
2024/01/13 01:28:40;;;;;;;126.47;119.07;;;;;;;;;;5083738;28;20495;-61
2024/01/13 01:31:10;;;;;;;115.67;109.47;;;;;;;;;;5083168;28;20890;-61
2024/01/13 01:33:37;;;;;;;118.38;111.95;;;;;;;;;;5079451;28;20794;-61
2024/01/13 01:36:10;;;;;;;122.45;115.30;;;;;;;;;;5080047;28;20437;-61
2024/01/13 01:38:37;;;;;;;105.65;99.82;;;;;;;;;;5078273;28;20443;-61
2024/01/13 01:41:16;;;;;;;94.07;88.87;;;;;;;;;;5076784;28;20822;-62
2024/01/13 01:43:45;;;;;;;104.50;98.93;;;;;;;;;;5097829;28;20479;-61
2024/01/13 01:46:13;;;;;;;98.47;92.32;;;;;;;;;;5079626;28;20427;-62
2024/01/13 01:48:41;;;;;;;88.83;83.73;;;;;;;;;;5092876;28;20432;-63
2024/01/13 01:51:13;;;;;;;93.15;87.63;;;;;;;;;;5081966;28;20442;-62
2024/01/13 01:53:41;;;;;;;92.13;86.85;;;;;;;;;;5075400;28;20465;-62
2024/01/13 01:56:15;;;;;;;100.28;94.53;;;;;;;;;;5080312;28;20461;-62
2024/01/13 01:58:43;;;;;;;102.82;96.82;;;;;;;;;;5069946;28;20427;-62
2024/01/13 02:01:13;;;;;;;91.80;86.43;;;;;;;;;;5092323;28;20477;-62
2024/01/13 02:03:40;;;;;;;101.85;95.82;;;;;;;;;;5087228;28;20825;-62
2024/01/13 02:06:08;;;;;;;100.55;94.28;;;;;;;;;;5073365;28;20431;-62
2024/01/13 02:08:37;;;;;;;99.65;93.82;;;;;;;;;;5069558;28;20439;-63
2024/01/13 02:11:10;;;;;;;95.03;89.50;;;;;;;;;;5077605;28;20445;-62
2024/01/13 02:13:38;;;;;;;94.72;88.80;;;;;;;;;;5081381;28;20508;-62
2024/01/13 02:16:09;;;;;;;101.25;95.40;;;;;;;;;;5082102;28;20437;-62
2024/01/13 02:18:36;;;;;;;100.47;94.32;;;;;;;;;;5087541;28;20953;-62
2024/01/13 02:21:09;;;;;;;95.80;89.80;;;;;;;;;;5092302;28;20449;-62
2024/01/13 02:23:37;;;;;;;106.85;98.97;;;;;;;;;;5101071;28;20447;-62
2024/01/13 02:26:04;;;;;;;85.53;80.20;;;;;;;;;;5070006;28;20459;-63
2024/01/13 02:28:32;;;;;;;91.53;86.13;;;;;;;;;;5079466;28;20828;-63
2024/01/13 02:31:14;;;;;;;95.35;89.30;;;;;;;;;;5078770;28;20452;-63
2024/01/13 02:33:43;;;;;;;92.07;85.57;;;;;;;;;;5087802;28;20519;-66
2024/01/13 02:36:10;;;;;;;81.43;75.57;;;;;;;;;;5078946;28;20832;-62
2024/01/13 02:38:38;;;;;;;92.28;86.55;;;;;;;;;;5082575;28;20989;-62
2024/01/13 02:41:05;;;;;;;76.93;72.03;;;;;;;;;;5082429;28;20440;-62
2024/01/13 02:43:34;;;;;;;80.10;75.00;;;;;;;;;;5087913;28;20430;-62
2024/01/13 02:46:02;;;;;;;82.50;77.33;;;;;;;;;;5104459;28;20429;-62
2024/01/13 02:48:31;;;;;;;86.03;80.97;;;;;;;;;;5085363;28;20482;-62
2024/01/13 02:51:06;;;;;;;91.82;86.13;;;;;;;;;;5085320;28;20516;-62
2024/01/13 02:53:37;;;;;;;83.93;78.73;;;;;;;;;;5068783;28;21126;-62
2024/01/13 02:56:05;;;;;;;90.32;84.75;;;;;;;;;;5064250;28;20438;-62
2024/01/13 02:58:32;;;;;;;84.22;79.38;;;;;;;;;;5070037;28;20435;-62
2024/01/13 03:01:11;;;;;;;81.32;76.57;;;;;;;;;;5064998;28;20459;-60
2024/01/13 03:03:38;;;;;;;77.82;73.32;;;;;;;;;;5072660;28;20518;-61
2024/01/13 03:06:07;;;;;;;78.13;73.55;;;;;;;;;;5073648;28;20423;-62
2024/01/13 03:08:35;;;;;;;86.38;81.22;;;;;;;;;;5070828;28;21115;-62
2024/01/13 03:11:11;;;;;;;82.18;77.55;;;;;;;;;;5066554;28;20525;-62
2024/01/13 03:13:42;;;;;;;81.05;76.47;;;;;;;;;;5063773;28;20423;-61
2024/01/13 03:16:12;;;;;;;85.10;80.10;;;;;;;;;;5066524;28;20431;-62
2024/01/13 03:18:40;;;;;;;69.93;66.00;;;;;;;;;;5074856;28;20817;-62
2024/01/13 03:21:13;;;;;;;80.05;75.32;;;;;;;;;;5065536;28;20930;-62
2024/01/13 03:23:42;;;;;;;88.75;83.82;;;;;;;;;;5073301;28;20481;-62
2024/01/13 03:26:11;;;;;;;95.75;90.10;;;;;;;;;;5064194;28;20437;-62
2024/01/13 03:28:39;;;;;;;86.43;81.53;;;;;;;;;;5062521;28;20427;-61
2024/01/13 03:31:10;;;;;;;80.88;76.38;;;;;;;;;;5066293;28;20481;-62
2024/01/13 03:33:43;;;;;;;87.97;82.97;;;;;;;;;;5066789;28;20433;-62
2024/01/13 03:36:11;;;;;;;100.40;94.70;;;;;;;;;;5080801;28;20513;-62
2024/01/13 03:38:39;;;;;;;97.53;92.05;;;;;;;;;;5063871;28;20431;-62
2024/01/13 03:41:12;;;;;;;103.45;97.80;;;;;;;;;;5060204;28;20920;-62
2024/01/13 03:43:39;;;;;;;103.70;97.90;;;;;;;;;;5065611;28;20427;-62
2024/01/13 03:46:06;;;;;;;99.13;93.50;;;;;;;;;;5074713;28;20509;-62
2024/01/13 03:48:34;;;;;;;94.43;89.22;;;;;;;;;;5066822;28;20435;-62
2024/01/13 03:51:01;;;;;;;88.50;83.50;;;;;;;;;;5072752;28;20778;-62
2024/01/13 03:53:34;;;;;;;91.70;86.50;;;;;;;;;;5064298;28;20454;-62
2024/01/13 03:56:05;;;;;;;84.75;80.10;;;;;;;;;;5065004;28;20463;-62
2024/01/13 03:58:38;;;;;;;98.63;93.10;;;;;;;;;;5061304;28;20462;-62
2024/01/13 04:01:05;;;;;;;95.95;90.68;;;;;;;;;;5061343;28;20783;-62
2024/01/13 04:03:35;;;;;;;93.30;88.07;;;;;;;;;;5058315;28;20510;-62
2024/01/13 04:06:03;;;;;;;93.68;88.32;;;;;;;;;;5063073;28;20431;-62
2024/01/13 04:08:32;;;;;;;105.20;99.50;;;;;;;;;;5060147;28;20469;-62
2024/01/13 04:10:59;;;;;;;95.80;90.53;;;;;;;;;;5067290;28;20427;-62
2024/01/13 04:13:27;;;;;;;95.35;89.85;;;;;;;;;;5068401;28;20432;-63
2024/01/13 04:15:54;;;;;;;101.45;95.93;;;;;;;;;;5070590;28;20435;-63
2024/01/13 04:18:21;;;;;;;98.30;92.75;;;;;;;;;;5069526;28;20423;-64
2024/01/13 04:20:49;;;;;;;125.90;119.20;;;;;;;;;;5064043;28;20434;-63
2024/01/13 04:23:29;;;;;;;112.18;105.97;;;;;;;;;;5076314;28;21063;-63
2024/01/13 04:25:59;;;;;;;112.57;106.57;;;;;;;;;;5079419;28;20428;-63
2024/01/13 04:28:29;;;;;;;117.47;110.50;;;;;;;;;;5071845;28;20431;-62
2024/01/13 04:30:56;;;;;;;111.78;105.38;;;;;;;;;;5075736;28;20453;-62
2024/01/13 04:33:24;;;;;;;119.47;113.05;;;;;;;;;;5067715;28;20462;-62
2024/01/13 04:35:51;;;;;;;114.07;107.78;;;;;;;;;;5065998;28;20878;-62
2024/01/13 04:38:18;;;;;;;113.50;107.32;;;;;;;;;;5077639;28;20423;-63
2024/01/13 04:40:47;;;;;;;116.70;109.95;;;;;;;;;;5069600;28;20431;-63
2024/01/13 04:43:14;;;;;;;104.75;98.68;;;;;;;;;;5070776;28;20801;-62
2024/01/13 04:45:41;;;;;;;111.93;105.45;;;;;;;;;;5075675;28;20921;-62
2024/01/13 04:48:08;;;;;;;109.07;103.15;;;;;;;;;;5077858;28;20457;-62
2024/01/13 04:50:36;;;;;;;112.30;106.10;;;;;;;;;;5078898;28;20908;-62
2024/01/13 04:53:03;;;;;;;116.40;109.77;;;;;;;;;;5078210;28;20917;-62
2024/01/13 04:55:30;;;;;;;121.63;114.43;;;;;;;;;;5078689;28;20425;-62
2024/01/13 04:57:57;;;;;;;118.40;111.60;;;;;;;;;;5069823;28;20520;-63
2024/01/13 05:00:25;;;;;;;110.95;104.28;;;;;;;;;;5081924;28;20865;-62
2024/01/13 05:02:52;;;;;;;109.55;103.68;;;;;;;;;;5070278;28;20447;-63
2024/01/13 05:05:23;;;;;;;108.97;102.90;;;;;;;;;;5068859;28;20782;-62
2024/01/13 05:07:51;;;;;;;107.93;101.97;;;;;;;;;;5078910;28;20427;-62
2024/01/13 05:10:18;;;;;;;108.82;102.25;;;;;;;;;;5069153;28;20489;-63
2024/01/13 05:12:45;;;;;;;112.93;106.60;;;;;;;;;;5070109;28;20435;-65
2024/01/13 05:15:12;;;;;;;115.45;108.70;;;;;;;;;;5059691;28;20438;-62
2024/01/13 05:17:40;;;;;;;109.20;102.80;;;;;;;;;;5066549;28;20426;-62
2024/01/13 05:20:10;;;;;;;99.47;93.55;;;;;;;;;;5082040;28;20922;-62
2024/01/13 05:22:37;;;;;;;103.68;97.68;;;;;;;;;;5077537;28;20427;-63
2024/01/13 05:25:13;;;;;;;91.30;86.38;;;;;;;;;;5074369;28;20428;-63
2024/01/13 05:27:40;;;;;;;87.30;82.13;;;;;;;;;;5063991;28;20957;-60
2024/01/13 05:30:09;;;;;;;106.80;100.88;;;;;;;;;;5065311;28;20580;-63
2024/01/13 05:32:39;;;;;;;108.30;102.30;;;;;;;;;;5081646;28;20432;-63
2024/01/13 05:35:10;;;;;;;93.13;87.78;;;;;;;;;;5063439;28;20506;-63
2024/01/13 05:37:37;;;;;;;102.30;96.53;;;;;;;;;;5068302;28;20518;-63
2024/01/13 05:40:05;;;;;;;91.47;86.10;;;;;;;;;;5067142;28;20550;-64
2024/01/13 05:42:33;;;;;;;111.53;104.38;;;;;;;;;;5056689;28;20427;-63
2024/01/13 05:45:00;;;;;;;91.95;86.75;;;;;;;;;;5068670;28;20435;-62
2024/01/13 05:47:27;;;;;;;94.53;89.07;;;;;;;;;;5078754;28;20908;-62
2024/01/13 05:49:54;;;;;;;107.68;100.93;;;;;;;;;;5077690;28;20440;-62
2024/01/13 05:52:22;;;;;;;99.65;93.43;;;;;;;;;;5070900;28;20771;-62
2024/01/13 05:54:49;;;;;;;95.20;89.93;;;;;;;;;;5071359;28;21217;-63
2024/01/13 05:57:16;;;;;;;107.32;101.50;;;;;;;;;;5065743;28;20428;-62
2024/01/13 05:59:43;;;;;;;91.17;86.37;;;;;;;;;;5067399;28;20481;-62
2024/01/13 06:02:11;;;;;;;115.97;109.38;;;;;;;;;;5069354;28;20499;-62
2024/01/13 06:04:38;;;;;;;112.88;106.60;;;;;;;;;;5070518;28;20437;-62
2024/01/13 06:07:05;;;;;;;117.65;110.68;;;;;;;;;;5067149;28;20431;-62
2024/01/13 06:09:33;;;;;;;109.05;102.47;;;;;;;;;;5065392;28;20423;-62
2024/01/13 06:12:00;;;;;;;105.60;99.43;;;;;;;;;;5073066;28;20466;-62
2024/01/13 06:14:27;;;;;;;111.80;105.28;;;;;;;;;;5070842;28;20522;-63
2024/01/13 06:16:54;;;;;;;126.22;119.38;;;;;;;;;;5064640;28;20498;-62
2024/01/13 06:19:22;;;;;;;100.47;95.20;;;;;;;;;;5070129;28;21071;-62
2024/01/13 06:21:49;;;;;;;103.35;97.45;;;;;;;;;;5068396;28;20507;-62
2024/01/13 06:24:17;;;;;;;105.57;99.93;;;;;;;;;;5071923;28;20446;-62
2024/01/13 06:26:44;;;;;;;105.45;99.10;;;;;;;;;;5076423;28;20462;-62
2024/01/13 06:29:11;;;;;;;101.38;95.40;;;;;;;;;;5082034;28;20433;-62
2024/01/13 06:31:38;;;;;;;95.00;89.68;;;;;;;;;;5063076;28;20512;-62
2024/01/13 06:34:05;;;;;;;95.90;90.43;;;;;;;;;;5071601;28;20518;-63
2024/01/13 06:36:33;;;;;;;96.47;91.10;;;;;;;;;;5059184;28;20439;-63
2024/01/13 06:39:04;;;;;;;111.32;104.30;;;;;;;;;;5059706;28;20450;-63
2024/01/13 06:41:32;;;;;;;121.10;114.22;;;;;;;;;;5071448;28;20431;-60
2024/01/13 06:43:59;;;;;;;94.63;89.10;;;;;;;;;;5081265;28;20513;-63
2024/01/13 06:46:26;;;;;;;90.78;85.53;;;;;;;;;;5064516;28;20443;-60
2024/01/13 06:48:53;;;;;;;103.77;97.57;;;;;;;;;;5063819;28;20472;-63
2024/01/13 06:51:21;;;;;;;120.28;113.50;;;;;;;;;;5068780;28;20783;-63
2024/01/13 06:53:48;;;;;;;83.93;78.88;;;;;;;;;;5049344;28;20941;-63
2024/01/13 06:56:15;;;;;;;86.70;81.50;;;;;;;;;;5063725;28;20474;-63
2024/01/13 06:58:44;;;;;;;95.88;90.25;;;;;;;;;;5080583;28;20985;-60
2024/01/13 07:01:14;;;;;;;88.35;83.20;;;;;;;;;;5065374;28;20439;-61
2024/01/13 07:03:42;;;;;;;84.15;78.80;;;;;;;;;;5062445;28;20837;-61
2024/01/13 07:06:10;;;;;;;88.53;83.50;;;;;;;;;;5065128;28;20423;-61
2024/01/13 07:08:37;;;;;;;81.05;76.43;;;;;;;;;;5067065;28;20435;-61
2024/01/13 07:11:12;;;;;;;88.25;83.13;;;;;;;;;;5062945;28;21331;-61
2024/01/13 07:13:45;;;;;;;110.60;104.15;;;;;;;;;;5071500;28;20515;-61
2024/01/13 07:16:12;;;;;;;100.03;94.25;;;;;;;;;;5063134;28;20436;-61
2024/01/13 07:18:40;;;;;;;100.05;94.32;;;;;;;;;;5063967;28;20519;-62
2024/01/13 07:21:08;;;;;;;91.38;85.88;;;;;;;;;;5067343;28;20414;-61
2024/01/13 07:23:35;;;;;;;95.10;89.50;;;;;;;;;;5069007;28;20431;-61
2024/01/13 07:26:02;;;;;;;105.68;100.07;;;;;;;;;;5066912;28;20477;-61
2024/01/13 07:28:30;;;;;;;101.30;95.85;;;;;;;;;;5061419;28;20502;-62
2024/01/13 07:30:57;;;;;;;102.45;96.68;;;;;;;;;;5067618;28;20537;-61
2024/01/13 07:33:24;;;;;;;94.25;88.90;;;;;;;;;;5066824;28;20492;-62
2024/01/13 07:35:51;;;;;;;104.43;98.63;;;;;;;;;;5058427;28;20434;-62
2024/01/13 07:38:19;;;;;;;107.68;100.70;;;;;;;;;;5062499;28;20438;-61
2024/01/13 07:40:46;;;;;;;98.15;92.40;;;;;;;;;;5059798;28;20463;-61
2024/01/13 07:43:16;;;;;;;94.57;89.00;;;;;;;;;;5060904;28;20428;-61
2024/01/13 07:45:43;;;;;;;106.50;100.28;;;;;;;;;;5067395;28;20485;-61
2024/01/13 07:48:10;;;;;;;97.38;91.85;;;;;;;;;;5070117;28;20435;-61
2024/01/13 07:50:38;;;;;;;94.93;89.47;;;;;;;;;;5064504;28;20461;-61
2024/01/13 07:53:07;;;;;;;101.40;95.70;;;;;;;;;;5060045;28;20480;-61
2024/01/13 07:55:34;;;;;;;108.25;101.90;;;;;;;;;;5054653;28;20435;-60
2024/01/13 07:58:01;;;;;;;108.90;103.00;;;;;;;;;;5061996;28;20435;-61
2024/01/13 08:00:29;;;;;;;80.10;75.45;;;;;;;;;;5066003;28;20430;-62
2024/01/13 08:02:56;;;;;;;91.68;86.55;;;;;;;;;;5069611;28;20437;-61
2024/01/13 08:05:23;;;;;;;88.43;83.38;;;;;;;;;;5068935;28;20490;-61
2024/01/13 08:07:50;;;;;;;94.88;88.82;;;;;;;;;;5065695;28;20465;-61
2024/01/13 08:10:18;;;;;;;100.60;94.93;;;;;;;;;;5064396;28;20435;-61
2024/01/13 08:12:46;;;;;;;101.05;95.35;;;;;;;;;;5065125;28;20523;-61
2024/01/13 08:15:16;;;;;;;98.55;92.95;;;;;;;;;;5067440;28;20423;-61
2024/01/13 08:17:44;;;;;;;100.25;94.20;;;;;;;;;;5063633;28;20423;-61
2024/01/13 08:20:13;;;;;;;87.60;82.65;;;;;;;;;;5065892;28;20433;-61
2024/01/13 08:22:41;;;;;;;90.53;85.20;;;;;;;;;;5063089;28;20435;-62
2024/01/13 08:25:08;;;;;;;90.63;84.97;;;;;;;;;;5061967;28;20455;-62
2024/01/13 08:27:38;;;;;;;90.85;85.70;;;;;;;;;;5058733;28;20794;-62
2024/01/13 08:30:06;;;;;;;104.05;98.15;;;;;;;;;;5060200;28;20507;-62
2024/01/13 08:32:33;;;;;;;89.20;83.97;;;;;;;;;;5058966;28;20506;-62
2024/01/13 08:35:01;;;;;;;99.30;93.70;;;;;;;;;;5064527;28;20528;-61
2024/01/13 08:37:28;;;;;;;88.53;83.32;;;;;;;;;;5060256;28;20434;-62
2024/01/13 08:39:55;;;;;;;95.28;89.60;;;;;;;;;;5057866;28;20472;-62
2024/01/13 08:42:23;;;;;;;92.75;87.15;;;;;;;;;;5069829;28;20483;-62
2024/01/13 08:44:50;;;;;;;85.07;80.13;;;;;;;;;;5068558;28;20520;-62
2024/01/13 08:47:17;;;;;;;71.85;67.82;;;;;;;;;;5056612;28;21010;-62
2024/01/13 08:49:44;;;;;;;93.53;88.43;;;;;;;;;;5061933;28;20467;-62
2024/01/13 08:52:15;;;;;;;91.68;86.03;;;;;;;;;;5059797;28;20504;-62
2024/01/13 08:54:44;;;;;;;94.03;88.68;;;;;;;;;;5060682;28;22684;-62
2024/01/13 08:57:11;;;;;;;94.22;88.70;;;;;;;;;;5062405;28;20762;-62
2024/01/13 08:59:38;;;;;;;107.22;100.90;;;;;;;;;;5070256;28;20433;-62
2024/01/13 09:02:06;;;;;;;90.70;85.87;;;;;;;;;;5067635;28;20429;-62
2024/01/13 09:04:34;;;;;;;101.50;95.88;;;;;;;;;;5068180;28;20785;-62
2024/01/13 09:07:04;;;;;;;102.70;97.03;;;;;;;;;;5067586;28;20434;-62
2024/01/13 09:09:31;;;;;;;97.95;92.32;;;;;;;;;;5069195;28;20769;-62
2024/01/13 09:11:58;;;;;;;83.25;78.20;;;;;;;;;;5066851;28;20548;-62
2024/01/13 09:14:26;;;;;;;97.55;91.47;;;;;;;;;;5065359;28;20428;-62
2024/01/13 09:16:53;;;;;;;87.30;81.97;;;;;;;;;;5063556;28;20470;-62
2024/01/13 09:19:20;;;;;;;91.32;86.00;;;;;;;;;;5065351;28;20454;-62
2024/01/13 09:21:48;;;;;;;94.93;89.32;;;;;;;;;;5064605;28;20933;-62
2024/01/13 09:24:18;;;;;;;93.95;88.70;;;;;;;;;;5067208;28;20430;-62
2024/01/13 09:26:45;;;;;;;98.35;92.60;;;;;;;;;;5062437;28;20425;-61
2024/01/13 09:29:17;;;;;;;91.25;86.20;;;;;;;;;;5073554;28;20428;-62
2024/01/13 09:31:47;;;;;;;99.53;93.68;;;;;;;;;;5065110;28;20431;-62
2024/01/13 09:34:15;;;;;;;85.35;80.57;;;;;;;;;;5068228;28;20514;-62
2024/01/13 09:36:46;;;;;;;93.80;88.47;;;;;;;;;;5067950;28;20488;-62
2024/01/13 09:39:22;;;;;;;89.85;85.00;;;;;;;;;;5073725;28;20432;-62
2024/01/13 09:41:52;;;;;;;99.82;94.07;;;;;;;;;;5076997;28;20430;-62
2024/01/13 09:44:24;;;;;;;102.45;96.65;;;;;;;;;;5074868;28;20991;-62
2024/01/13 09:46:53;;;;;;;112.47;106.30;;;;;;;;;;5067119;28;20471;-62
2024/01/13 09:49:23;;;;;;;105.85;100.05;;;;;;;;;;5070315;28;20434;-62
2024/01/13 09:51:51;;;;;;;119.60;112.60;;;;;;;;;;5068537;28;20438;-61
2024/01/13 09:54:29;;;;;;;116.40;109.63;;;;;;;;;;5073820;28;20425;-62
2024/01/13 09:56:58;;;;;;;100.88;95.20;;;;;;;;;;5073958;28;20524;-62
2024/01/13 09:59:28;;;;;;;95.15;89.22;;;;;;;;;;5072054;28;20480;-62
2024/01/13 10:02:02;;;;;;;98.78;92.97;;;;;;;;;;5076782;28;20421;-62
2024/01/13 10:04:36;;;;;;;113.27;106.97;;;;;;;;;;5068777;28;20442;-62
2024/01/13 10:07:07;;;;;;;100.13;94.53;;;;;;;;;;5069939;28;20462;-62
2024/01/13 10:09:34;;;;;;;99.68;94.40;;;;;;;;;;5069097;28;20423;-62
2024/01/13 10:12:11;;;;;;;101.38;95.65;;;;;;;;;;5067723;28;20481;-62
2024/01/13 10:14:39;;;;;;;109.38;103.43;;;;;;;;;;5069344;28;20531;-62
2024/01/13 10:17:09;;;;;;;98.78;93.30;;;;;;;;;;5073670;28;20889;-62
2024/01/13 10:19:41;;;;;;;93.37;88.23;;;;;;;;;;5067413;28;20427;-62
2024/01/13 10:22:09;;;;;;;87.22;82.38;;;;;;;;;;5071756;28;20453;-62
2024/01/13 10:24:36;;;;;;;123.03;115.85;;;;;;;;;;5078058;28;20432;-62
2024/01/13 10:27:04;;;;;;;105.63;99.63;;;;;;;;;;5065637;28;20446;-62
2024/01/13 10:29:35;;;;;;;128.68;122.13;;;;;;;;;;5076049;28;20450;-62
2024/01/13 10:32:03;;;;;;;117.38;111.22;;;;;;;;;;5068819;28;20427;-62
2024/01/13 10:34:30;;;;;;;127.78;121.07;;;;;;;;;;5076377;28;20884;-62
2024/01/13 10:37:08;;;;;;;112.97;107.15;;;;;;;;;;5075566;28;20856;-62
2024/01/13 10:39:35;;;;;;;107.07;101.35;;;;;;;;;;5067455;28;20433;-62
2024/01/13 10:42:06;;;;;;;115.85;109.75;;;;;;;;;;5074328;28;21008;-62
2024/01/13 10:44:36;;;;;;;100.03;94.38;;;;;;;;;;5064801;28;20488;-62
2024/01/13 10:47:16;;;;;;;102.88;97.40;;;;;;;;;;5060628;28;21504;-63
2024/01/13 10:49:47;;;;;;;103.78;98.00;;;;;;;;;;5067529;28;20576;-62
2024/01/13 10:52:19;;;;;;;107.35;101.40;;;;;;;;;;5079027;28;20916;-62
2024/01/13 10:54:47;;;;;;;129.85;123.00;;;;;;;;;;5074733;28;20423;-62
2024/01/13 10:57:16;;;;;;;147.10;139.60;;;;;;;;;;5082622;28;20427;-62
2024/01/13 10:59:44;;;;;;;127.37;120.47;;;;;;;;;;5064459;28;21167;-62
2024/01/13 11:02:12;;;;;;;100.45;95.05;;;;;;;;;;5080395;28;20791;-62
2024/01/13 11:04:42;;;;;;;117.82;111.55;;;;;;;;;;5071512;28;20486;-62
2024/01/13 11:07:09;;;;;;;115.97;109.65;;;;;;;;;;5080020;28;20418;-62
2024/01/13 11:09:41;;;;;;;121.63;115.00;;;;;;;;;;5076034;28;20440;-62
2024/01/13 11:12:17;;;;;;;140.27;133.02;;;;;;;;;;5073989;28;20533;-62
2024/01/13 11:14:59;;;;;;;112.18;106.20;;;;;;;;;;5076276;28;20434;-62
2024/01/13 11:17:27;;;;;;;106.65;101.07;;;;;;;;;;5075279;28;20933;-62
2024/01/13 11:19:54;;;;;;;105.25;99.43;;;;;;;;;;5065061;28;20427;-62
2024/01/13 11:22:34;;;;;;;129.23;122.53;;;;;;;;;;5065558;28;20423;-62
2024/01/13 11:25:23;;;;;;;110.18;103.93;;;;;;;;;;5086143;28;20420;-62
2024/01/13 11:28:00;;;;;;;105.15;99.55;;;;;;;;;;5076367;28;20435;-62
2024/01/13 11:30:32;;;;;;;104.35;98.57;;;;;;;;;;5063490;28;20926;-62
2024/01/13 11:32:59;;;;;;;123.28;116.70;;;;;;;;;;5070246;28;20878;-62
2024/01/13 11:35:29;;;;;;;130.85;124.22;;;;;;;;;;5068361;28;20431;-62
2024/01/13 11:37:57;;;;;;;120.88;114.50;;;;;;;;;;5071110;28;20940;-62
2024/01/13 11:40:26;;;;;;;126.32;119.60;;;;;;;;;;5073629;28;20479;-62
2024/01/13 11:43:00;;;;;;;134.45;126.82;;;;;;;;;;5064450;28;20435;-62
2024/01/13 11:45:35;;;;;;;117.57;111.22;;;;;;;;;;5075479;28;20431;-62
2024/01/13 11:48:21;;;;;;;140.88;133.43;;;;;;;;;;5065460;28;20526;-62
2024/01/13 11:50:51;;;;;;;139.38;132.15;;;;;;;;;;5070087;28;20510;-62
2024/01/13 11:53:33;;;;;;;149.97;142.33;;;;;;;;;;5080696;28;20499;-62
2024/01/13 11:56:00;;;;;;;120.43;113.93;;;;;;;;;;5075701;28;20516;-62
2024/01/13 11:58:27;;;;;;;129.93;122.90;;;;;;;;;;5067417;28;20432;-62
2024/01/13 12:00:54;;;;;;;138.52;130.77;;;;;;;;;;5062999;28;20510;-62
2024/01/13 12:03:22;;;;;;;127.38;120.43;;;;;;;;;;5068473;28;20434;-62
2024/01/13 12:05:50;;;;;;;138.10;130.90;;;;;;;;;;5075660;28;20425;-62
2024/01/13 12:08:27;;;;;;;127.55;120.75;;;;;;;;;;5069691;28;20913;-63
2024/01/13 12:10:54;;;;;;;123.45;116.85;;;;;;;;;;5065766;28;20847;-62
2024/01/13 12:13:24;;;;;;;138.00;130.65;;;;;;;;;;5075469;28;20505;-62
2024/01/13 12:15:51;;;;;;;131.65;124.65;;;;;;;;;;5075508;28;20426;-62
2024/01/13 12:18:26;;;;;;;112.28;106.10;;;;;;;;;;5070757;28;20508;-62
2024/01/13 12:20:57;;;;;;;145.93;138.25;;;;;;;;;;5065098;28;20423;-62
2024/01/13 12:23:24;;;;;;;145.13;137.43;;;;;;;;;;5065577;28;20917;-62
2024/01/13 12:25:52;;;;;;;119.30;112.75;;;;;;;;;;5072340;28;20511;-62
2024/01/13 12:28:35;;;;;;;115.50;109.30;;;;;;;;;;5075978;28;20810;-62
2024/01/13 12:31:03;;;;;;;124.20;117.40;;;;;;;;;;5082347;28;20442;-63
2024/01/13 12:33:30;;;;;;;111.80;105.65;;;;;;;;;;5070276;28;20439;-62
2024/01/13 12:36:04;;;;;;;125.38;118.63;;;;;;;;;;5078421;28;20422;-62
2024/01/13 12:38:34;;;;;;;128.75;121.78;;;;;;;;;;5077933;28;20433;-62
2024/01/13 12:41:06;;;;;;;105.85;99.95;;;;;;;;;;5079009;28;20423;-62
2024/01/13 12:43:34;;;;;;;118.97;112.47;;;;;;;;;;5077796;28;20519;-62
2024/01/13 12:46:02;;;;;;;115.60;109.28;;;;;;;;;;5064955;28;20477;-62
2024/01/13 12:48:32;;;;;;;116.57;110.20;;;;;;;;;;5074184;28;20435;-62
2024/01/13 12:51:09;;;;;;;140.25;132.73;;;;;;;;;;5073121;28;20438;-62
2024/01/13 12:53:38;;;;;;;135.77;128.52;;;;;;;;;;5069753;28;20937;-62
2024/01/13 12:56:08;;;;;;;140.98;133.57;;;;;;;;;;5068294;28;20509;-62
2024/01/13 12:58:39;;;;;;;139.50;132.15;;;;;;;;;;5085807;28;20431;-62
2024/01/13 13:01:08;;;;;;;112.63;106.30;;;;;;;;;;5086302;28;21069;-62
2024/01/13 13:03:35;;;;;;;117.13;110.70;;;;;;;;;;5068350;28;20511;-62
2024/01/13 13:06:03;;;;;;;133.10;126.03;;;;;;;;;;5069640;28;20427;-62
2024/01/13 13:08:31;;;;;;;140.45;133.10;;;;;;;;;;5071153;28;20438;-62
2024/01/13 13:10:58;;;;;;;128.23;121.27;;;;;;;;;;5081991;28;20433;-62
2024/01/13 13:13:29;;;;;;;128.03;121.17;;;;;;;;;;5075733;28;20528;-62
2024/01/13 13:16:00;;;;;;;133.85;126.82;;;;;;;;;;5077333;28;20857;-62
2024/01/13 13:18:27;;;;;;;133.18;126.18;;;;;;;;;;5080954;28;20426;-62
2024/01/13 13:20:54;;;;;;;131.32;124.38;;;;;;;;;;5072411;28;20427;-62
2024/01/13 13:23:21;;;;;;;129.85;122.55;;;;;;;;;;5070485;28;20423;-62
2024/01/13 13:25:52;;;;;;;130.93;123.25;;;;;;;;;;5078965;28;20421;-63
2024/01/13 13:28:22;;;;;;;130.43;123.47;;;;;;;;;;5064138;28;20435;-62
2024/01/13 13:30:50;;;;;;;143.68;136.23;;;;;;;;;;5084463;28;20422;-62
2024/01/13 13:33:17;;;;;;;126.72;120.10;;;;;;;;;;5075571;28;20523;-62
2024/01/13 13:35:45;;;;;;;123.47;116.28;;;;;;;;;;5077075;28;20433;-62
2024/01/13 13:38:14;;;;;;;106.30;100.13;;;;;;;;;;5072448;28;20432;-62
2024/01/13 13:40:42;;;;;;;114.07;107.85;;;;;;;;;;5073867;28;20431;-62
2024/01/13 13:43:09;;;;;;;116.70;110.38;;;;;;;;;;5078824;28;20450;-62
2024/01/13 13:45:36;;;;;;;105.13;99.22;;;;;;;;;;5068795;28;20431;-62
2024/01/13 13:48:03;;;;;;;95.78;90.43;;;;;;;;;;5072373;28;20446;-62
2024/01/13 13:50:35;;;;;;;113.80;107.43;;;;;;;;;;5067396;28;20439;-62
2024/01/13 13:53:06;;;;;;;101.05;95.28;;;;;;;;;;5079256;28;20425;-62
2024/01/13 13:55:38;;;;;;;106.72;100.78;;;;;;;;;;5067208;28;20941;-62
2024/01/13 13:58:05;;;;;;;100.63;95.00;;;;;;;;;;5070207;28;20506;-62
2024/01/13 14:00:32;;;;;;;95.95;90.55;;;;;;;;;;5073919;28;20494;-62
2024/01/13 14:03:02;;;;;;;98.97;93.35;;;;;;;;;;5079085;28;20418;-62
2024/01/13 14:05:30;;;;;;;107.32;101.43;;;;;;;;;;5063519;28;20426;-62
2024/01/13 14:07:58;;;;;;;103.50;98.07;;;;;;;;;;5055655;28;20420;-62
2024/01/13 14:10:25;;;;;;;106.13;100.40;;;;;;;;;;5058436;28;20539;-62
2024/01/13 14:12:55;;;;;;;110.28;104.40;;;;;;;;;;5053816;28;20431;-62
2024/01/13 14:15:24;;;;;;;93.90;88.50;;;;;;;;;;5058785;28;20485;-62